Terminal Aerodrome Forecast
Issued by NWS Chicago, IL

Home | Current Version | Previous Version | Graphics & Text | Print | Product List | Glossary On
Versions: 1 2 3 4 5 6 7 8 9 10 11 12 13 14 15 16 17 18 19 20 21 22 23 24
000
FTUS43 KLOT 241137
TAFRFD
TAF
KRFD 241137Z 2412/2512 04008KT P6SM SCT020 SCT035
      TEMPO 2412/2415 BKN020
     FM241500 05009KT P6SM BKN025 BKN035
     FM241900 05008KT P6SM SCT035
     FM250000 08003KT P6SM SKC=

USA.gov is the U.S. government's official web portal to all federal, state and local government web resources and services.